Parana, Argentina
Current Conditions -  °F | °C
As of 12:00 PM on Friday 19 Dec 2014 (Local Time) from SAAR Reporting Station
Clear Clear  
Wind Chill: 90°   Ceiling: Unl
Heat Index: 90°   Visibility: 6mi
Dew Point: 63°   Wind: 14mph
Humidity: 40%   Direction: 320°NW
Pressure: 29.65"   Gusts: NA
Location:  31.5°S, 60.8°W
Report Text: SAAR 191500Z 32012KT CAVOK 32/17 Q1004
Loading
Personal Weather Stations






























Interactive Weather Map New forecast layout! Learn more

10-Day Weather Forecast

Advertisements
Track Severe Weather on mobile